sensor_id;sensor_type;location;lat;lon;timestamp;P1;durP1;ratioP1;P2;durP2;ratioP2
69779;SDS011;57052;55.602;38.096;2023-08-17T00:00:01;20.35;;;8.93;;
69779;SDS011;57052;55.602;38.096;2023-08-17T00:02:30;14.50;;;8.52;;
69779;SDS011;57052;55.602;38.096;2023-08-17T00:04:55;15.38;;;9.18;;
69779;SDS011;57052;55.602;38.096;2023-08-17T00:07:21;13.52;;;8.73;;
69779;SDS011;57052;55.602;38.096;2023-08-17T00:09:46;16.38;;;9.07;;
69779;SDS011;57052;55.602;38.096;2023-08-17T00:12:13;18.17;;;8.98;;
69779;SDS011;57052;55.602;38.096;2023-08-17T00:14:39;17.63;;;8.68;;
69779;SDS011;57052;55.602;38.096;2023-08-17T00:17:04;13.65;;;8.52;;
69779;SDS011;57052;55.602;38.096;2023-08-17T00:19:30;15.75;;;8.63;;
69779;SDS011;57052;55.602;38.096;2023-08-17T00:21:56;19.80;;;9.50;;
69779;SDS011;57052;55.602;38.096;2023-08-17T00:24:21;20.05;;;8.77;;
69779;SDS011;57052;55.602;38.096;2023-08-17T00:26:47;14.10;;;8.50;;
69779;SDS011;57052;55.602;38.096;2023-08-17T00:29:13;17.13;;;9.30;;
69779;SDS011;57052;55.602;38.096;2023-08-17T00:31:40;14.50;;;9.20;;
69779;SDS011;57052;55.602;38.096;2023-08-17T00:34:06;19.10;;;9.65;;
69779;SDS011;57052;55.602;38.096;2023-08-17T00:36:32;15.45;;;9.35;;
69779;SDS011;57052;55.602;38.096;2023-08-17T00:38:58;19.33;;;9.00;;
69779;SDS011;57052;55.602;38.096;2023-08-17T00:41:23;15.05;;;9.32;;
69779;SDS011;57052;55.602;38.096;2023-08-17T00:43:49;13.02;;;8.95;;
69779;SDS011;57052;55.602;38.096;2023-08-17T00:46:15;14.82;;;9.13;;
69779;SDS011;57052;55.602;38.096;2023-08-17T00:48:41;14.48;;;8.82;;
69779;SDS011;57052;55.602;38.096;2023-08-17T00:51:07;16.08;;;9.15;;
69779;SDS011;57052;55.602;38.096;2023-08-17T00:53:34;17.50;;;8.80;;
69779;SDS011;57052;55.602;38.096;2023-08-17T00:56:00;14.88;;;9.50;;
69779;SDS011;57052;55.602;38.096;2023-08-17T00:58:27;15.43;;;9.80;;
69779;SDS011;57052;55.602;38.096;2023-08-17T01:00:53;16.25;;;9.43;;
69779;SDS011;57052;55.602;38.096;2023-08-17T01:03:19;17.67;;;9.90;;
69779;SDS011;57052;55.602;38.096;2023-08-17T01:05:47;14.43;;;9.40;;
69779;SDS011;57052;55.602;38.096;2023-08-17T01:08:12;15.27;;;8.77;;
69779;SDS011;57052;55.602;38.096;2023-08-17T01:10:51;17.55;;;9.43;;
69779;SDS011;57052;55.602;38.096;2023-08-17T01:13:44;19.20;;;9.75;;
69779;SDS011;57052;55.602;38.096;2023-08-17T01:16:12;15.98;;;9.55;;
69779;SDS011;57052;55.602;38.096;2023-08-17T01:18:46;17.33;;;9.43;;
69779;SDS011;57052;55.602;38.096;2023-08-17T01:21:13;17.63;;;9.35;;
69779;SDS011;57052;55.602;38.096;2023-08-17T01:23:46;20.27;;;9.07;;
69779;SDS011;57052;55.602;38.096;2023-08-17T01:26:14;13.65;;;8.80;;
69779;SDS011;57052;55.602;38.096;2023-08-17T01:28:42;13.45;;;9.13;;
69779;SDS011;57052;55.602;38.096;2023-08-17T01:31:14;14.07;;;9.23;;
69779;SDS011;57052;55.602;38.096;2023-08-17T01:34:09;13.75;;;9.20;;
69779;SDS011;57052;55.602;38.096;2023-08-17T01:36:45;15.98;;;9.75;;
69779;SDS011;57052;55.602;38.096;2023-08-17T01:41:42;18.83;;;9.90;;
69779;SDS011;57052;55.602;38.096;2023-08-17T01:44:10;15.98;;;9.57;;
69779;SDS011;57052;55.602;38.096;2023-08-17T01:46:36;15.93;;;9.80;;
69779;SDS011;57052;55.602;38.096;2023-08-17T01:49:03;17.35;;;9.25;;
69779;SDS011;57052;55.602;38.096;2023-08-17T01:51:28;16.63;;;8.90;;
69779;SDS011;57052;55.602;38.096;2023-08-17T01:53:54;19.35;;;10.15;;
69779;SDS011;57052;55.602;38.096;2023-08-17T01:56:20;15.55;;;9.50;;
69779;SDS011;57052;55.602;38.096;2023-08-17T01:58:45;15.48;;;9.48;;
69779;SDS011;57052;55.602;38.096;2023-08-17T02:01:11;18.30;;;9.48;;
69779;SDS011;57052;55.602;38.096;2023-08-17T02:03:37;17.40;;;9.30;;
69779;SDS011;57052;55.602;38.096;2023-08-17T02:06:02;17.30;;;9.45;;
69779;SDS011;57052;55.602;38.096;2023-08-17T02:08:29;13.57;;;9.13;;
69779;SDS011;57052;55.602;38.096;2023-08-17T02:10:55;17.80;;;10.02;;
69779;SDS011;57052;55.602;38.096;2023-08-17T02:13:21;15.65;;;9.77;;
69779;SDS011;57052;55.602;38.096;2023-08-17T02:15:47;15.10;;;9.90;;
69779;SDS011;57052;55.602;38.096;2023-08-17T02:18:14;18.00;;;9.18;;
69779;SDS011;57052;55.602;38.096;2023-08-17T02:20:39;17.80;;;9.48;;
69779;SDS011;57052;55.602;38.096;2023-08-17T02:23:05;20.48;;;10.15;;
69779;SDS011;57052;55.602;38.096;2023-08-17T02:25:31;16.13;;;9.75;;
69779;SDS011;57052;55.602;38.096;2023-08-17T02:28:04;19.98;;;10.20;;
69779;SDS011;57052;55.602;38.096;2023-08-17T02:30:30;16.83;;;9.73;;
69779;SDS011;57052;55.602;38.096;2023-08-17T02:32:56;20.58;;;11.15;;
69779;SDS011;57052;55.602;38.096;2023-08-17T02:35:21;19.60;;;10.38;;
69779;SDS011;57052;55.602;38.096;2023-08-17T02:37:47;18.50;;;9.68;;
69779;SDS011;57052;55.602;38.096;2023-08-17T02:40:13;18.38;;;10.35;;
69779;SDS011;57052;55.602;38.096;2023-08-17T02:42:38;18.33;;;9.63;;
69779;SDS011;57052;55.602;38.096;2023-08-17T02:45:05;20.30;;;10.32;;
69779;SDS011;57052;55.602;38.096;2023-08-17T02:47:32;18.10;;;10.52;;
69779;SDS011;57052;55.602;38.096;2023-08-17T02:49:58;19.63;;;10.85;;
69779;SDS011;57052;55.602;38.096;2023-08-17T02:52:23;20.98;;;10.48;;
69779;SDS011;57052;55.602;38.096;2023-08-17T02:54:49;18.92;;;10.77;;
69779;SDS011;57052;55.602;38.096;2023-08-17T02:57:15;21.17;;;12.18;;
69779;SDS011;57052;55.602;38.096;2023-08-17T02:59:40;23.42;;;12.25;;
69779;SDS011;57052;55.602;38.096;2023-08-17T03:02:06;25.17;;;12.90;;
69779;SDS011;57052;55.602;38.096;2023-08-17T03:04:31;21.63;;;12.02;;
69779;SDS011;57052;55.602;38.096;2023-08-17T03:06:58;24.02;;;12.20;;
69779;SDS011;57052;55.602;38.096;2023-08-17T03:09:23;21.77;;;12.70;;
69779;SDS011;57052;55.602;38.096;2023-08-17T03:11:49;20.17;;;11.10;;
69779;SDS011;57052;55.602;38.096;2023-08-17T03:14:15;17.83;;;10.35;;
69779;SDS011;57052;55.602;38.096;2023-08-17T03:16:40;21.23;;;10.32;;
69779;SDS011;57052;55.602;38.096;2023-08-17T03:19:06;17.75;;;10.50;;
69779;SDS011;57052;55.602;38.096;2023-08-17T03:21:33;19.35;;;10.90;;
69779;SDS011;57052;55.602;38.096;2023-08-17T03:23:59;20.30;;;10.90;;
69779;SDS011;57052;55.602;38.096;2023-08-17T03:26:25;17.33;;;10.52;;
69779;SDS011;57052;55.602;38.096;2023-08-17T03:28:50;18.73;;;10.27;;
69779;SDS011;57052;55.602;38.096;2023-08-17T03:31:16;17.10;;;9.93;;
69779;SDS011;57052;55.602;38.096;2023-08-17T03:33:42;15.40;;;9.35;;
69779;SDS011;57052;55.602;38.096;2023-08-17T03:36:07;19.17;;;9.50;;
69779;SDS011;57052;55.602;38.096;2023-08-17T03:38:33;15.88;;;9.25;;
69779;SDS011;57052;55.602;38.096;2023-08-17T03:40:58;16.48;;;9.38;;
69779;SDS011;57052;55.602;38.096;2023-08-17T03:43:24;18.27;;;9.57;;
69779;SDS011;57052;55.602;38.096;2023-08-17T03:45:51;15.27;;;9.07;;
69779;SDS011;57052;55.602;38.096;2023-08-17T03:48:17;16.85;;;9.48;;
69779;SDS011;57052;55.602;38.096;2023-08-17T03:50:42;14.32;;;8.80;;
69779;SDS011;57052;55.602;38.096;2023-08-17T03:53:08;15.07;;;7.95;;
69779;SDS011;57052;55.602;38.096;2023-08-17T03:55:34;13.77;;;8.38;;
69779;SDS011;57052;55.602;38.096;2023-08-17T03:57:59;15.35;;;8.07;;
69779;SDS011;57052;55.602;38.096;2023-08-17T04:00:25;13.60;;;8.18;;
69779;SDS011;57052;55.602;38.096;2023-08-17T04:02:50;15.30;;;8.07;;
69779;SDS011;57052;55.602;38.096;2023-08-17T04:05:16;13.15;;;7.63;;
69779;SDS011;57052;55.602;38.096;2023-08-17T04:07:42;14.63;;;7.43;;
69779;SDS011;57052;55.602;38.096;2023-08-17T04:10:08;14.90;;;7.70;;
69779;SDS011;57052;55.602;38.096;2023-08-17T04:12:34;12.55;;;7.45;;
69779;SDS011;57052;55.602;38.096;2023-08-17T04:14:59;12.68;;;7.65;;
69779;SDS011;57052;55.602;38.096;2023-08-17T04:17:25;12.15;;;6.70;;
69779;SDS011;57052;55.602;38.096;2023-08-17T04:19:51;12.23;;;7.03;;
69779;SDS011;57052;55.602;38.096;2023-08-17T04:22:17;11.75;;;7.03;;
69779;SDS011;57052;55.602;38.096;2023-08-17T04:24:43;12.45;;;6.93;;
69779;SDS011;57052;55.602;38.096;2023-08-17T04:27:09;11.70;;;6.80;;
69779;SDS011;57052;55.602;38.096;2023-08-17T04:29:34;15.35;;;6.63;;
69779;SDS011;57052;55.602;38.096;2023-08-17T04:32:01;13.45;;;6.60;;
69779;SDS011;57052;55.602;38.096;2023-08-17T04:34:27;12.45;;;6.55;;
69779;SDS011;57052;55.602;38.096;2023-08-17T04:36:52;15.63;;;6.45;;
69779;SDS011;57052;55.602;38.096;2023-08-17T04:39:18;10.90;;;6.25;;
69779;SDS011;57052;55.602;38.096;2023-08-17T04:41:44;10.98;;;5.50;;
69779;SDS011;57052;55.602;38.096;2023-08-17T04:44:09;8.77;;;5.57;;
69779;SDS011;57052;55.602;38.096;2023-08-17T04:46:35;8.63;;;5.53;;
69779;SDS011;57052;55.602;38.096;2023-08-17T04:49:01;9.70;;;5.63;;
69779;SDS011;57052;55.602;38.096;2023-08-17T04:51:27;11.60;;;6.07;;
69779;SDS011;57052;55.602;38.096;2023-08-17T04:53:53;11.18;;;5.45;;
69779;SDS011;57052;55.602;38.096;2023-08-17T04:56:18;10.35;;;5.72;;
69779;SDS011;57052;55.602;38.096;2023-08-17T04:58:44;10.10;;;6.35;;
69779;SDS011;57052;55.602;38.096;2023-08-17T05:01:10;8.20;;;5.43;;
69779;SDS011;57052;55.602;38.096;2023-08-17T05:03:35;11.25;;;5.93;;
69779;SDS011;57052;55.602;38.096;2023-08-17T05:06:01;9.30;;;5.85;;
69779;SDS011;57052;55.602;38.096;2023-08-17T05:08:27;12.25;;;5.70;;
69779;SDS011;57052;55.602;38.096;2023-08-17T05:10:52;13.43;;;6.20;;
69779;SDS011;57052;55.602;38.096;2023-08-17T05:13:18;10.23;;;5.45;;
69779;SDS011;57052;55.602;38.096;2023-08-17T05:15:44;14.35;;;6.32;;
69779;SDS011;57052;55.602;38.096;2023-08-17T05:18:10;11.52;;;5.80;;
69779;SDS011;57052;55.602;38.096;2023-08-17T05:20:36;8.85;;;5.35;;
69779;SDS011;57052;55.602;38.096;2023-08-17T05:23:01;8.27;;;5.43;;
69779;SDS011;57052;55.602;38.096;2023-08-17T05:25:27;8.45;;;5.43;;
69779;SDS011;57052;55.602;38.096;2023-08-17T05:27:54;10.23;;;5.18;;
69779;SDS011;57052;55.602;38.096;2023-08-17T05:30:20;11.27;;;5.18;;
69779;SDS011;57052;55.602;38.096;2023-08-17T05:32:46;9.98;;;5.00;;
69779;SDS011;57052;55.602;38.096;2023-08-17T05:35:12;8.65;;;4.70;;
69779;SDS011;57052;55.602;38.096;2023-08-17T05:37:37;9.10;;;4.80;;
69779;SDS011;57052;55.602;38.096;2023-08-17T05:40:03;8.00;;;4.80;;
69779;SDS011;57052;55.602;38.096;2023-08-17T05:42:30;7.85;;;4.90;;
69779;SDS011;57052;55.602;38.096;2023-08-17T05:44:56;11.88;;;4.65;;
69779;SDS011;57052;55.602;38.096;2023-08-17T05:47:21;7.57;;;4.43;;
69779;SDS011;57052;55.602;38.096;2023-08-17T05:49:47;7.78;;;4.10;;
69779;SDS011;57052;55.602;38.096;2023-08-17T05:52:13;9.90;;;4.50;;
69779;SDS011;57052;55.602;38.096;2023-08-17T05:54:39;9.55;;;3.80;;
69779;SDS011;57052;55.602;38.096;2023-08-17T05:57:04;8.65;;;4.53;;
69779;SDS011;57052;55.602;38.096;2023-08-17T05:59:30;6.80;;;3.92;;
69779;SDS011;57052;55.602;38.096;2023-08-17T06:01:56;5.32;;;3.35;;
69779;SDS011;57052;55.602;38.096;2023-08-17T06:04:21;7.82;;;3.75;;
69779;SDS011;57052;55.602;38.096;2023-08-17T06:06:47;6.57;;;3.60;;
69779;SDS011;57052;55.602;38.096;2023-08-17T06:09:13;5.82;;;3.50;;
69779;SDS011;57052;55.602;38.096;2023-08-17T06:11:39;7.18;;;3.80;;
69779;SDS011;57052;55.602;38.096;2023-08-17T06:14:05;13.73;;;4.43;;
69779;SDS011;57052;55.602;38.096;2023-08-17T06:16:31;5.40;;;3.70;;
69779;SDS011;57052;55.602;38.096;2023-08-17T06:18:56;9.77;;;3.45;;
69779;SDS011;57052;55.602;38.096;2023-08-17T06:21:22;5.80;;;2.72;;
69779;SDS011;57052;55.602;38.096;2023-08-17T06:23:48;5.28;;;2.90;;
69779;SDS011;57052;55.602;38.096;2023-08-17T06:26:13;5.53;;;2.92;;
69779;SDS011;57052;55.602;38.096;2023-08-17T06:28:39;7.22;;;3.30;;
69779;SDS011;57052;55.602;38.096;2023-08-17T06:31:05;6.75;;;2.70;;
69779;SDS011;57052;55.602;38.096;2023-08-17T06:33:32;5.93;;;3.17;;
69779;SDS011;57052;55.602;38.096;2023-08-17T06:35:58;5.90;;;2.60;;
69779;SDS011;57052;55.602;38.096;2023-08-17T06:38:23;3.55;;;2.30;;
69779;SDS011;57052;55.602;38.096;2023-08-17T06:40:49;4.78;;;2.60;;
69779;SDS011;57052;55.602;38.096;2023-08-17T06:43:16;3.72;;;2.35;;
69779;SDS011;57052;55.602;38.096;2023-08-17T06:45:42;3.80;;;2.78;;
69779;SDS011;57052;55.602;38.096;2023-08-17T06:48:08;7.15;;;2.38;;
69779;SDS011;57052;55.602;38.096;2023-08-17T06:50:34;5.03;;;2.50;;
69779;SDS011;57052;55.602;38.096;2023-08-17T06:53:00;5.10;;;2.30;;
69779;SDS011;57052;55.602;38.096;2023-08-17T06:55:27;4.80;;;2.15;;
69779;SDS011;57052;55.602;38.096;2023-08-17T06:57:53;3.90;;;2.20;;
69779;SDS011;57052;55.602;38.096;2023-08-17T07:00:20;5.53;;;2.20;;
69779;SDS011;57052;55.602;38.096;2023-08-17T07:02:46;5.63;;;2.10;;
69779;SDS011;57052;55.602;38.096;2023-08-17T07:05:14;5.65;;;2.70;;
69779;SDS011;57052;55.602;38.096;2023-08-17T07:07:40;4.10;;;2.20;;
69779;SDS011;57052;55.602;38.096;2023-08-17T07:10:06;6.05;;;2.30;;
69779;SDS011;57052;55.602;38.096;2023-08-17T07:12:32;3.97;;;2.60;;
69779;SDS011;57052;55.602;38.096;2023-08-17T07:14:58;6.65;;;2.67;;
69779;SDS011;57052;55.602;38.096;2023-08-17T07:17:23;6.18;;;2.47;;
69779;SDS011;57052;55.602;38.096;2023-08-17T07:19:49;5.22;;;2.22;;
69779;SDS011;57052;55.602;38.096;2023-08-17T07:22:14;6.43;;;2.80;;
69779;SDS011;57052;55.602;38.096;2023-08-17T07:24:41;4.35;;;2.40;;
69779;SDS011;57052;55.602;38.096;2023-08-17T07:27:08;4.22;;;2.20;;
69779;SDS011;57052;55.602;38.096;2023-08-17T07:29:33;22.55;;;4.10;;
69779;SDS011;57052;55.602;38.096;2023-08-17T07:31:59;17.02;;;3.25;;
69779;SDS011;57052;55.602;38.096;2023-08-17T07:34:30;8.75;;;2.67;;
69779;SDS011;57052;55.602;38.096;2023-08-17T07:36:57;6.57;;;2.28;;
69779;SDS011;57052;55.602;38.096;2023-08-17T07:39:23;4.05;;;2.30;;
69779;SDS011;57052;55.602;38.096;2023-08-17T07:41:48;3.80;;;1.98;;
69779;SDS011;57052;55.602;38.096;2023-08-17T07:44:14;4.40;;;2.08;;
69779;SDS011;57052;55.602;38.096;2023-08-17T07:46:40;4.75;;;2.40;;
69779;SDS011;57052;55.602;38.096;2023-08-17T07:49:06;10.15;;;5.22;;
69779;SDS011;57052;55.602;38.096;2023-08-17T07:51:31;9.60;;;3.75;;
69779;SDS011;57052;55.602;38.096;2023-08-17T07:54:02;5.25;;;3.03;;
69779;SDS011;57052;55.602;38.096;2023-08-17T07:56:28;4.28;;;3.10;;
69779;SDS011;57052;55.602;38.096;2023-08-17T07:58:53;4.50;;;2.30;;
69779;SDS011;57052;55.602;38.096;2023-08-17T08:01:20;3.30;;;2.40;;
69779;SDS011;57052;55.602;38.096;2023-08-17T08:03:46;6.90;;;2.90;;
69779;SDS011;57052;55.602;38.096;2023-08-17T08:06:12;4.38;;;2.53;;
69779;SDS011;57052;55.602;38.096;2023-08-17T08:08:38;5.90;;;2.58;;
69779;SDS011;57052;55.602;38.096;2023-08-17T08:11:05;4.10;;;2.40;;
69779;SDS011;57052;55.602;38.096;2023-08-17T08:13:30;4.88;;;2.40;;
69779;SDS011;57052;55.602;38.096;2023-08-17T08:15:58;3.92;;;2.60;;
69779;SDS011;57052;55.602;38.096;2023-08-17T08:18:24;4.00;;;2.20;;
69779;SDS011;57052;55.602;38.096;2023-08-17T08:20:50;4.72;;;2.90;;
69779;SDS011;57052;55.602;38.096;2023-08-17T08:23:16;4.47;;;2.80;;
69779;SDS011;57052;55.602;38.096;2023-08-17T08:25:41;5.45;;;2.70;;
69779;SDS011;57052;55.602;38.096;2023-08-17T08:28:07;10.65;;;7.28;;
69779;SDS011;57052;55.602;38.096;2023-08-17T08:30:34;6.00;;;4.30;;
69779;SDS011;57052;55.602;38.096;2023-08-17T08:32:59;7.15;;;3.97;;
69779;SDS011;57052;55.602;38.096;2023-08-17T08:35:25;4.07;;;3.00;;
69779;SDS011;57052;55.602;38.096;2023-08-17T08:37:53;4.53;;;3.10;;
69779;SDS011;57052;55.602;38.096;2023-08-17T08:40:21;3.72;;;2.75;;
69779;SDS011;57052;55.602;38.096;2023-08-17T08:45:18;7.75;;;2.58;;
69779;SDS011;57052;55.602;38.096;2023-08-17T08:47:45;6.07;;;3.15;;
69779;SDS011;57052;55.602;38.096;2023-08-17T08:50:12;6.55;;;3.03;;
69779;SDS011;57052;55.602;38.096;2023-08-17T08:52:50;4.15;;;2.67;;
69779;SDS011;57052;55.602;38.096;2023-08-17T08:55:23;5.63;;;2.97;;
69779;SDS011;57052;55.602;38.096;2023-08-17T08:57:52;4.15;;;2.25;;
69779;SDS011;57052;55.602;38.096;2023-08-17T09:00:20;7.88;;;3.00;;
69779;SDS011;57052;55.602;38.096;2023-08-17T09:02:46;3.75;;;2.40;;
69779;SDS011;57052;55.602;38.096;2023-08-17T09:05:12;4.90;;;2.50;;
69779;SDS011;57052;55.602;38.096;2023-08-17T09:07:39;4.22;;;2.10;;
69779;SDS011;57052;55.602;38.096;2023-08-17T09:10:06;4.93;;;2.63;;
69779;SDS011;57052;55.602;38.096;2023-08-17T09:12:32;2.97;;;2.10;;
69779;SDS011;57052;55.602;38.096;2023-08-17T09:14:58;4.53;;;2.65;;
69779;SDS011;57052;55.602;38.096;2023-08-17T09:17:24;5.85;;;2.50;;
69779;SDS011;57052;55.602;38.096;2023-08-17T09:19:50;3.75;;;2.35;;
69779;SDS011;57052;55.602;38.096;2023-08-17T09:22:23;5.70;;;2.97;;
69779;SDS011;57052;55.602;38.096;2023-08-17T09:25:09;4.93;;;2.70;;
69779;SDS011;57052;55.602;38.096;2023-08-17T09:27:37;4.05;;;2.40;;
69779;SDS011;57052;55.602;38.096;2023-08-17T09:30:10;5.28;;;2.17;;
69779;SDS011;57052;55.602;38.096;2023-08-17T09:32:36;4.80;;;2.42;;
69779;SDS011;57052;55.602;38.096;2023-08-17T09:35:02;3.38;;;2.30;;
69779;SDS011;57052;55.602;38.096;2023-08-17T09:37:32;3.63;;;2.45;;
69779;SDS011;57052;55.602;38.096;2023-08-17T09:39:58;6.05;;;2.33;;
69779;SDS011;57052;55.602;38.096;2023-08-17T09:42:24;4.38;;;2.33;;
69779;SDS011;57052;55.602;38.096;2023-08-17T09:44:52;3.63;;;2.20;;
69779;SDS011;57052;55.602;38.096;2023-08-17T09:47:19;4.72;;;2.47;;
69779;SDS011;57052;55.602;38.096;2023-08-17T09:49:48;3.92;;;2.58;;
69779;SDS011;57052;55.602;38.096;2023-08-17T09:52:15;5.13;;;2.63;;
69779;SDS011;57052;55.602;38.096;2023-08-17T09:54:41;3.78;;;2.40;;
69779;SDS011;57052;55.602;38.096;2023-08-17T09:57:08;5.28;;;2.28;;
69779;SDS011;57052;55.602;38.096;2023-08-17T09:59:35;5.55;;;2.70;;
69779;SDS011;57052;55.602;38.096;2023-08-17T10:02:00;3.47;;;2.88;;
69779;SDS011;57052;55.602;38.096;2023-08-17T10:04:29;3.42;;;2.35;;
69779;SDS011;57052;55.602;38.096;2023-08-17T10:06:59;3.45;;;2.47;;
69779;SDS011;57052;55.602;38.096;2023-08-17T10:09:28;4.13;;;2.58;;
69779;SDS011;57052;55.602;38.096;2023-08-17T10:11:58;4.50;;;2.50;;
69779;SDS011;57052;55.602;38.096;2023-08-17T10:14:33;5.30;;;2.50;;
69779;SDS011;57052;55.602;38.096;2023-08-17T10:17:09;4.63;;;2.30;;
69779;SDS011;57052;55.602;38.096;2023-08-17T10:19:46;2.97;;;2.20;;
69779;SDS011;57052;55.602;38.096;2023-08-17T10:24:43;4.63;;;2.40;;
69779;SDS011;57052;55.602;38.096;2023-08-17T10:27:10;4.32;;;2.40;;
69779;SDS011;57052;55.602;38.096;2023-08-17T10:29:38;3.72;;;2.20;;
69779;SDS011;57052;55.602;38.096;2023-08-17T10:32:08;5.32;;;2.15;;
69779;SDS011;57052;55.602;38.096;2023-08-17T10:34:34;3.40;;;2.10;;
69779;SDS011;57052;55.602;38.096;2023-08-17T10:37:00;6.45;;;2.60;;
69779;SDS011;57052;55.602;38.096;2023-08-17T10:39:28;3.85;;;2.40;;
69779;SDS011;57052;55.602;38.096;2023-08-17T10:41:55;4.45;;;2.22;;
69779;SDS011;57052;55.602;38.096;2023-08-17T10:44:55;6.05;;;2.22;;
69779;SDS011;57052;55.602;38.096;2023-08-17T10:49:48;4.47;;;2.10;;
69779;SDS011;57052;55.602;38.096;2023-08-17T10:52:27;4.68;;;2.40;;
69779;SDS011;57052;55.602;38.096;2023-08-17T10:54:54;3.63;;;2.13;;
69779;SDS011;57052;55.602;38.096;2023-08-17T11:00:38;4.40;;;2.58;;
69779;SDS011;57052;55.602;38.096;2023-08-17T11:02:56;4.45;;;2.40;;
69779;SDS011;57052;55.602;38.096;2023-08-17T11:08:21;3.70;;;2.30;;
69779;SDS011;57052;55.602;38.096;2023-08-17T11:11:36;3.28;;;2.10;;
69779;SDS011;57052;55.602;38.096;2023-08-17T11:13:45;3.85;;;2.20;;
69779;SDS011;57052;55.602;38.096;2023-08-17T11:16:12;3.35;;;2.22;;
69779;SDS011;57052;55.602;38.096;2023-08-17T11:18:39;6.18;;;2.38;;
69779;SDS011;57052;55.602;38.096;2023-08-17T11:21:06;5.05;;;2.42;;
69779;SDS011;57052;55.602;38.096;2023-08-17T11:23:34;4.88;;;2.53;;
69779;SDS011;57052;55.602;38.096;2023-08-17T11:26:01;4.10;;;2.40;;
69779;SDS011;57052;55.602;38.096;2023-08-17T11:28:29;4.03;;;2.40;;
69779;SDS011;57052;55.602;38.096;2023-08-17T11:31:05;4.85;;;2.35;;
69779;SDS011;57052;55.602;38.096;2023-08-17T11:33:32;4.50;;;2.33;;
69779;SDS011;57052;55.602;38.096;2023-08-17T11:35:59;4.10;;;2.42;;
69779;SDS011;57052;55.602;38.096;2023-08-17T11:38:31;5.43;;;2.33;;
69779;SDS011;57052;55.602;38.096;2023-08-17T11:41:01;4.15;;;2.35;;
69779;SDS011;57052;55.602;38.096;2023-08-17T11:43:32;4.43;;;2.65;;
69779;SDS011;57052;55.602;38.096;2023-08-17T11:45:58;3.22;;;2.20;;
69779;SDS011;57052;55.602;38.096;2023-08-17T11:48:25;3.80;;;2.03;;
69779;SDS011;57052;55.602;38.096;2023-08-17T11:50:52;3.15;;;2.20;;
69779;SDS011;57052;55.602;38.096;2023-08-17T11:53:19;2.72;;;2.00;;
69779;SDS011;57052;55.602;38.096;2023-08-17T11:55:45;2.75;;;2.15;;
69779;SDS011;57052;55.602;38.096;2023-08-17T11:58:10;3.08;;;2.05;;
69779;SDS011;57052;55.602;38.096;2023-08-17T12:00:40;4.07;;;2.40;;
69779;SDS011;57052;55.602;38.096;2023-08-17T12:03:07;4.45;;;2.42;;
69779;SDS011;57052;55.602;38.096;2023-08-17T12:05:33;4.22;;;2.50;;
69779;SDS011;57052;55.602;38.096;2023-08-17T12:07:59;6.03;;;2.50;;
69779;SDS011;57052;55.602;38.096;2023-08-17T12:10:28;6.20;;;2.50;;
69779;SDS011;57052;55.602;38.096;2023-08-17T12:12:57;5.18;;;2.47;;
69779;SDS011;57052;55.602;38.096;2023-08-17T12:15:29;4.00;;;2.63;;
69779;SDS011;57052;55.602;38.096;2023-08-17T12:17:58;5.30;;;2.80;;
69779;SDS011;57052;55.602;38.096;2023-08-17T12:20:25;4.47;;;2.60;;
69779;SDS011;57052;55.602;38.096;2023-08-17T12:22:50;3.95;;;2.50;;
69779;SDS011;57052;55.602;38.096;2023-08-17T12:25:16;4.35;;;2.60;;
69779;SDS011;57052;55.602;38.096;2023-08-17T12:27:47;5.50;;;3.03;;
69779;SDS011;57052;55.602;38.096;2023-08-17T12:30:13;4.60;;;2.47;;
69779;SDS011;57052;55.602;38.096;2023-08-17T12:32:48;4.18;;;2.50;;
69779;SDS011;57052;55.602;38.096;2023-08-17T12:35:14;4.90;;;2.50;;
69779;SDS011;57052;55.602;38.096;2023-08-17T12:37:39;5.68;;;2.72;;
69779;SDS011;57052;55.602;38.096;2023-08-17T12:40:05;3.80;;;2.60;;
69779;SDS011;57052;55.602;38.096;2023-08-17T12:42:33;5.88;;;2.60;;
69779;SDS011;57052;55.602;38.096;2023-08-17T12:44:58;3.88;;;2.60;;
69779;SDS011;57052;55.602;38.096;2023-08-17T12:47:24;4.93;;;2.75;;
69779;SDS011;57052;55.602;38.096;2023-08-17T12:49:50;4.28;;;2.83;;
69779;SDS011;57052;55.602;38.096;2023-08-17T12:52:15;5.03;;;2.60;;
69779;SDS011;57052;55.602;38.096;2023-08-17T12:54:41;5.05;;;2.97;;
69779;SDS011;57052;55.602;38.096;2023-08-17T12:57:07;5.38;;;2.58;;
69779;SDS011;57052;55.602;38.096;2023-08-17T12:59:32;3.40;;;2.83;;
69779;SDS011;57052;55.602;38.096;2023-08-17T13:01:59;4.72;;;2.70;;
69779;SDS011;57052;55.602;38.096;2023-08-17T13:04:25;4.15;;;2.72;;
69779;SDS011;57052;55.602;38.096;2023-08-17T13:06:50;5.40;;;2.90;;
69779;SDS011;57052;55.602;38.096;2023-08-17T13:09:16;5.28;;;2.90;;
69779;SDS011;57052;55.602;38.096;2023-08-17T13:11:44;3.83;;;2.60;;
69779;SDS011;57052;55.602;38.096;2023-08-17T13:14:11;4.55;;;2.80;;
69779;SDS011;57052;55.602;38.096;2023-08-17T13:16:38;3.58;;;2.50;;
69779;SDS011;57052;55.602;38.096;2023-08-17T13:19:03;7.25;;;3.03;;
69779;SDS011;57052;55.602;38.096;2023-08-17T13:21:29;4.40;;;2.80;;
69779;SDS011;57052;55.602;38.096;2023-08-17T13:23:55;6.90;;;3.30;;
69779;SDS011;57052;55.602;38.096;2023-08-17T13:26:23;8.75;;;3.05;;
69779;SDS011;57052;55.602;38.096;2023-08-17T13:28:49;5.78;;;2.90;;
69779;SDS011;57052;55.602;38.096;2023-08-17T13:31:14;9.07;;;3.10;;
69779;SDS011;57052;55.602;38.096;2023-08-17T13:33:40;4.95;;;2.92;;
69779;SDS011;57052;55.602;38.096;2023-08-17T13:36:06;4.93;;;2.90;;
69779;SDS011;57052;55.602;38.096;2023-08-17T13:38:31;5.40;;;3.22;;
69779;SDS011;57052;55.602;38.096;2023-08-17T13:40:57;4.63;;;2.80;;
69779;SDS011;57052;55.602;38.096;2023-08-17T13:43:23;4.78;;;2.97;;
69779;SDS011;57052;55.602;38.096;2023-08-17T13:45:48;4.63;;;2.90;;
69779;SDS011;57052;55.602;38.096;2023-08-17T13:48:14;5.22;;;2.70;;
69779;SDS011;57052;55.602;38.096;2023-08-17T13:50:40;4.20;;;2.97;;
69779;SDS011;57052;55.602;38.096;2023-08-17T13:53:06;3.58;;;2.60;;
69779;SDS011;57052;55.602;38.096;2023-08-17T13:55:32;5.05;;;2.67;;
69779;SDS011;57052;55.602;38.096;2023-08-17T13:57:58;4.05;;;2.78;;
69779;SDS011;57052;55.602;38.096;2023-08-17T14:00:24;5.15;;;2.92;;
69779;SDS011;57052;55.602;38.096;2023-08-17T14:02:50;4.22;;;2.97;;
69779;SDS011;57052;55.602;38.096;2023-08-17T14:05:16;4.50;;;2.85;;
69779;SDS011;57052;55.602;38.096;2023-08-17T14:07:42;5.25;;;3.20;;
69779;SDS011;57052;55.602;38.096;2023-08-17T14:10:08;6.75;;;2.80;;
69779;SDS011;57052;55.602;38.096;2023-08-17T14:12:34;7.68;;;3.10;;
69779;SDS011;57052;55.602;38.096;2023-08-17T14:14:59;5.55;;;3.08;;
69779;SDS011;57052;55.602;38.096;2023-08-17T14:17:26;6.80;;;3.40;;
69779;SDS011;57052;55.602;38.096;2023-08-17T14:19:51;8.45;;;3.35;;
69779;SDS011;57052;55.602;38.096;2023-08-17T14:22:17;9.40;;;3.20;;
69779;SDS011;57052;55.602;38.096;2023-08-17T14:24:43;9.48;;;3.05;;
69779;SDS011;57052;55.602;38.096;2023-08-17T14:27:08;5.72;;;3.08;;
69779;SDS011;57052;55.602;38.096;2023-08-17T14:29:34;5.93;;;3.20;;
69779;SDS011;57052;55.602;38.096;2023-08-17T14:32:00;4.32;;;2.90;;
69779;SDS011;57052;55.602;38.096;2023-08-17T14:34:25;6.72;;;2.88;;
69779;SDS011;57052;55.602;38.096;2023-08-17T14:36:51;6.25;;;3.17;;
69779;SDS011;57052;55.602;38.096;2023-08-17T14:39:17;6.43;;;3.15;;
69779;SDS011;57052;55.602;38.096;2023-08-17T14:41:42;4.43;;;3.00;;